sensor_id;sensor_type;location;lat;lon;timestamp;P1;durP1;ratioP1;P2;durP2;ratioP2
4424;SDS011;2225;53.568;13.266;2024-03-23T00:54:15;40.93;;;6.70;;
4424;SDS011;2225;53.568;13.266;2024-03-23T00:56:41;30.43;;;7.47;;
4424;SDS011;2225;53.568;13.266;2024-03-23T00:59:07;29.10;;;5.63;;
4424;SDS011;2225;53.568;13.266;2024-03-23T01:01:33;29.53;;;6.60;;
4424;SDS011;2225;53.568;13.266;2024-03-23T01:03:59;31.90;;;6.30;;
4424;SDS011;2225;53.568;13.266;2024-03-23T01:06:25;24.60;;;5.40;;
4424;SDS011;2225;53.568;13.266;2024-03-23T01:08:51;22.43;;;6.30;;
4424;SDS011;2225;53.568;13.266;2024-03-23T01:11:17;25.23;;;6.10;;
4424;SDS011;2225;53.568;13.266;2024-03-23T01:13:43;23.23;;;5.43;;
4424;SDS011;2225;53.568;13.266;2024-03-23T01:16:09;34.63;;;6.30;;
4424;SDS011;2225;53.568;13.266;2024-03-23T01:18:35;22.70;;;4.87;;
4424;SDS011;2225;53.568;13.266;2024-03-23T01:21:01;27.30;;;6.20;;
4424;SDS011;2225;53.568;13.266;2024-03-23T01:23:27;37.97;;;6.13;;
4424;SDS011;2225;53.568;13.266;2024-03-23T01:25:53;41.27;;;6.30;;
4424;SDS011;2225;53.568;13.266;2024-03-23T01:28:20;25.33;;;5.90;;
4424;SDS011;2225;53.568;13.266;2024-03-23T01:30:47;34.03;;;6.00;;
4424;SDS011;2225;53.568;13.266;2024-03-23T01:33:13;27.83;;;6.80;;
4424;SDS011;2225;53.568;13.266;2024-03-23T01:35:39;24.57;;;5.63;;
4424;SDS011;2225;53.568;13.266;2024-03-23T01:38:06;20.37;;;5.33;;
4424;SDS011;2225;53.568;13.266;2024-03-23T01:40:32;34.53;;;6.20;;
4424;SDS011;2225;53.568;13.266;2024-03-23T01:42:58;41.83;;;6.63;;
4424;SDS011;2225;53.568;13.266;2024-03-23T01:45:30;26.67;;;6.67;;
4424;SDS011;2225;53.568;13.266;2024-03-23T01:47:56;23.83;;;6.10;;
4424;SDS011;2225;53.568;13.266;2024-03-23T01:50:23;23.40;;;5.27;;
4424;SDS011;2225;53.568;13.266;2024-03-23T01:52:50;27.07;;;6.07;;
4424;SDS011;2225;53.568;13.266;2024-03-23T01:55:16;25.63;;;5.53;;
4424;SDS011;2225;53.568;13.266;2024-03-23T01:57:42;30.53;;;6.77;;
4424;SDS011;2225;53.568;13.266;2024-03-23T02:00:08;31.27;;;6.10;;
4424;SDS011;2225;53.568;13.266;2024-03-23T02:02:43;28.13;;;6.27;;
4424;SDS011;2225;53.568;13.266;2024-03-23T02:05:10;26.30;;;6.20;;
4424;SDS011;2225;53.568;13.266;2024-03-23T02:07:38;34.87;;;6.53;;
4424;SDS011;2225;53.568;13.266;2024-03-23T02:10:06;28.17;;;5.60;;
4424;SDS011;2225;53.568;13.266;2024-03-23T02:12:32;28.43;;;6.17;;
4424;SDS011;2225;53.568;13.266;2024-03-23T02:14:59;24.33;;;5.23;;
4424;SDS011;2225;53.568;13.266;2024-03-23T02:17:25;33.77;;;6.73;;
4424;SDS011;2225;53.568;13.266;2024-03-23T02:19:51;23.70;;;4.93;;
4424;SDS011;2225;53.568;13.266;2024-03-23T02:22:17;31.60;;;5.57;;
4424;SDS011;2225;53.568;13.266;2024-03-23T02:24:43;41.40;;;5.87;;
4424;SDS011;2225;53.568;13.266;2024-03-23T02:27:09;22.30;;;4.60;;
4424;SDS011;2225;53.568;13.266;2024-03-23T02:29:35;32.80;;;6.80;;
4424;SDS011;2225;53.568;13.266;2024-03-23T02:32:01;25.17;;;6.50;;
4424;SDS011;2225;53.568;13.266;2024-03-23T02:34:27;28.37;;;6.27;;
4424;SDS011;2225;53.568;13.266;2024-03-23T02:36:53;29.83;;;7.20;;
4424;SDS011;2225;53.568;13.266;2024-03-23T02:39:19;31.50;;;6.73;;
4424;SDS011;2225;53.568;13.266;2024-03-23T02:41:45;32.47;;;6.60;;
4424;SDS011;2225;53.568;13.266;2024-03-23T02:44:11;34.40;;;7.37;;
4424;SDS011;2225;53.568;13.266;2024-03-23T02:46:40;40.90;;;6.60;;
4424;SDS011;2225;53.568;13.266;2024-03-23T02:49:07;25.30;;;6.33;;
4424;SDS011;2225;53.568;13.266;2024-03-23T02:51:33;35.40;;;7.90;;
4424;SDS011;2225;53.568;13.266;2024-03-23T02:53:59;28.30;;;7.00;;
4424;SDS011;2225;53.568;13.266;2024-03-23T02:56:25;24.63;;;5.60;;
4424;SDS011;2225;53.568;13.266;2024-03-23T02:58:51;35.97;;;6.70;;
4424;SDS011;2225;53.568;13.266;2024-03-23T03:01:17;23.60;;;6.27;;
4424;SDS011;2225;53.568;13.266;2024-03-23T03:03:43;31.60;;;6.47;;
4424;SDS011;2225;53.568;13.266;2024-03-23T03:06:09;37.13;;;7.33;;
4424;SDS011;2225;53.568;13.266;2024-03-23T03:08:35;33.03;;;7.23;;
4424;SDS011;2225;53.568;13.266;2024-03-23T03:11:01;29.10;;;7.10;;
4424;SDS011;2225;53.568;13.266;2024-03-23T03:13:27;27.10;;;6.97;;
4424;SDS011;2225;53.568;13.266;2024-03-23T03:15:53;35.53;;;6.77;;
4424;SDS011;2225;53.568;13.266;2024-03-23T03:18:19;28.73;;;7.97;;
4424;SDS011;2225;53.568;13.266;2024-03-23T03:20:45;20.67;;;6.63;;
4424;SDS011;2225;53.568;13.266;2024-03-23T03:23:11;35.30;;;7.53;;
4424;SDS011;2225;53.568;13.266;2024-03-23T03:25:37;21.47;;;6.50;;
4424;SDS011;2225;53.568;13.266;2024-03-23T03:28:03;28.77;;;5.83;;
4424;SDS011;2225;53.568;13.266;2024-03-23T03:30:30;25.20;;;6.80;;
4424;SDS011;2225;53.568;13.266;2024-03-23T03:32:56;30.60;;;7.10;;
4424;SDS011;2225;53.568;13.266;2024-03-23T03:35:22;37.43;;;7.10;;
4424;SDS011;2225;53.568;13.266;2024-03-23T03:37:48;28.50;;;6.90;;
4424;SDS011;2225;53.568;13.266;2024-03-23T03:40:14;26.13;;;7.03;;
4424;SDS011;2225;53.568;13.266;2024-03-23T03:42:40;22.93;;;7.33;;
4424;SDS011;2225;53.568;13.266;2024-03-23T03:45:07;23.83;;;6.57;;
4424;SDS011;2225;53.568;13.266;2024-03-23T03:47:33;29.33;;;7.43;;
4424;SDS011;2225;53.568;13.266;2024-03-23T03:49:59;33.30;;;7.90;;
4424;SDS011;2225;53.568;13.266;2024-03-23T03:52:25;29.33;;;7.20;;
4424;SDS011;2225;53.568;13.266;2024-03-23T03:54:51;33.50;;;7.20;;
4424;SDS011;2225;53.568;13.266;2024-03-23T03:57:26;33.33;;;7.30;;
4424;SDS011;2225;53.568;13.266;2024-03-23T03:59:52;34.50;;;7.07;;
4424;SDS011;2225;53.568;13.266;2024-03-23T04:02:18;26.60;;;6.77;;
4424;SDS011;2225;53.568;13.266;2024-03-23T04:04:44;29.97;;;8.80;;
4424;SDS011;2225;53.568;13.266;2024-03-23T04:07:10;33.93;;;7.17;;
4424;SDS011;2225;53.568;13.266;2024-03-23T04:09:35;23.37;;;7.30;;
4424;SDS011;2225;53.568;13.266;2024-03-23T04:12:01;27.33;;;7.60;;
4424;SDS011;2225;53.568;13.266;2024-03-23T04:14:27;45.00;;;8.20;;
4424;SDS011;2225;53.568;13.266;2024-03-23T04:16:53;32.33;;;6.63;;
4424;SDS011;2225;53.568;13.266;2024-03-23T04:19:20;31.70;;;7.57;;
4424;SDS011;2225;53.568;13.266;2024-03-23T04:21:46;32.17;;;7.67;;
4424;SDS011;2225;53.568;13.266;2024-03-23T04:24:12;31.60;;;7.53;;
4424;SDS011;2225;53.568;13.266;2024-03-23T04:26:41;31.10;;;7.33;;
4424;SDS011;2225;53.568;13.266;2024-03-23T04:29:11;34.77;;;7.43;;
4424;SDS011;2225;53.568;13.266;2024-03-23T04:31:37;37.63;;;8.10;;
4424;SDS011;2225;53.568;13.266;2024-03-23T04:34:04;30.60;;;8.37;;
4424;SDS011;2225;53.568;13.266;2024-03-23T04:36:30;32.23;;;8.83;;
4424;SDS011;2225;53.568;13.266;2024-03-23T04:38:59;31.33;;;7.70;;
4424;SDS011;2225;53.568;13.266;2024-03-23T04:41:25;41.10;;;7.23;;
4424;SDS011;2225;53.568;13.266;2024-03-23T04:43:51;31.33;;;7.33;;
4424;SDS011;2225;53.568;13.266;2024-03-23T04:46:17;40.83;;;7.50;;
4424;SDS011;2225;53.568;13.266;2024-03-23T04:48:43;32.23;;;7.50;;
4424;SDS011;2225;53.568;13.266;2024-03-23T04:51:10;43.07;;;8.43;;
4424;SDS011;2225;53.568;13.266;2024-03-23T04:53:37;33.97;;;7.60;;
4424;SDS011;2225;53.568;13.266;2024-03-23T04:56:03;30.83;;;7.40;;
4424;SDS011;2225;53.568;13.266;2024-03-23T04:58:29;36.13;;;7.80;;
4424;SDS011;2225;53.568;13.266;2024-03-23T05:00:56;35.27;;;6.63;;
4424;SDS011;2225;53.568;13.266;2024-03-23T05:03:22;30.37;;;8.50;;
4424;SDS011;2225;53.568;13.266;2024-03-23T05:05:49;35.47;;;7.63;;
4424;SDS011;2225;53.568;13.266;2024-03-23T05:08:15;30.30;;;7.50;;
4424;SDS011;2225;53.568;13.266;2024-03-23T05:10:42;32.60;;;6.63;;
4424;SDS011;2225;53.568;13.266;2024-03-23T05:13:08;36.87;;;6.33;;
4424;SDS011;2225;53.568;13.266;2024-03-23T05:15:34;23.30;;;7.00;;
4424;SDS011;2225;53.568;13.266;2024-03-23T05:18:00;33.57;;;6.33;;
4424;SDS011;2225;53.568;13.266;2024-03-23T05:20:27;30.20;;;6.47;;
4424;SDS011;2225;53.568;13.266;2024-03-23T05:22:54;25.13;;;7.30;;
4424;SDS011;2225;53.568;13.266;2024-03-23T05:25:20;33.40;;;7.53;;
4424;SDS011;2225;53.568;13.266;2024-03-23T05:27:46;31.70;;;6.70;;
4424;SDS011;2225;53.568;13.266;2024-03-23T05:30:12;29.00;;;7.23;;
4424;SDS011;2225;53.568;13.266;2024-03-23T05:32:39;37.07;;;7.17;;
4424;SDS011;2225;53.568;13.266;2024-03-23T05:35:07;29.47;;;7.20;;
4424;SDS011;2225;53.568;13.266;2024-03-23T05:37:34;26.40;;;6.97;;
4424;SDS011;2225;53.568;13.266;2024-03-23T05:40:00;31.03;;;7.00;;
4424;SDS011;2225;53.568;13.266;2024-03-23T05:42:27;28.43;;;6.33;;
4424;SDS011;2225;53.568;13.266;2024-03-23T05:44:53;27.47;;;7.07;;
4424;SDS011;2225;53.568;13.266;2024-03-23T05:47:19;25.23;;;6.60;;
4424;SDS011;2225;53.568;13.266;2024-03-23T05:49:45;27.83;;;6.27;;
4424;SDS011;2225;53.568;13.266;2024-03-23T05:52:11;26.53;;;6.20;;
4424;SDS011;2225;53.568;13.266;2024-03-23T05:54:38;23.43;;;5.63;;
4424;SDS011;2225;53.568;13.266;2024-03-23T05:57:04;25.87;;;6.70;;
4424;SDS011;2225;53.568;13.266;2024-03-23T05:59:32;28.17;;;7.30;;
4424;SDS011;2225;53.568;13.266;2024-03-23T06:01:58;30.33;;;6.70;;
4424;SDS011;2225;53.568;13.266;2024-03-23T06:04:24;24.00;;;6.50;;
4424;SDS011;2225;53.568;13.266;2024-03-23T06:06:51;26.40;;;6.43;;
4424;SDS011;2225;53.568;13.266;2024-03-23T06:09:17;23.40;;;6.73;;
4424;SDS011;2225;53.568;13.266;2024-03-23T06:11:44;31.17;;;6.33;;
4424;SDS011;2225;53.568;13.266;2024-03-23T06:14:11;23.00;;;5.70;;
4424;SDS011;2225;53.568;13.266;2024-03-23T06:16:36;25.77;;;6.20;;
4424;SDS011;2225;53.568;13.266;2024-03-23T06:19:03;30.00;;;5.70;;
4424;SDS011;2225;53.568;13.266;2024-03-23T06:21:32;25.40;;;7.23;;
4424;SDS011;2225;53.568;13.266;2024-03-23T06:23:58;25.20;;;6.50;;
4424;SDS011;2225;53.568;13.266;2024-03-23T06:26:24;33.63;;;5.90;;
4424;SDS011;2225;53.568;13.266;2024-03-23T06:28:50;36.83;;;6.80;;
4424;SDS011;2225;53.568;13.266;2024-03-23T06:31:16;21.80;;;5.40;;
4424;SDS011;2225;53.568;13.266;2024-03-23T06:33:43;34.30;;;6.53;;
4424;SDS011;2225;53.568;13.266;2024-03-23T06:36:09;36.73;;;6.70;;
4424;SDS011;2225;53.568;13.266;2024-03-23T06:38:36;31.40;;;6.90;;
4424;SDS011;2225;53.568;13.266;2024-03-23T06:41:03;26.67;;;6.10;;
4424;SDS011;2225;53.568;13.266;2024-03-23T06:43:31;29.57;;;7.00;;
4424;SDS011;2225;53.568;13.266;2024-03-23T06:45:57;49.00;;;6.87;;
4424;SDS011;2225;53.568;13.266;2024-03-23T06:48:23;26.10;;;6.40;;
4424;SDS011;2225;53.568;13.266;2024-03-23T06:50:49;30.10;;;6.00;;
4424;SDS011;2225;53.568;13.266;2024-03-23T06:53:15;29.77;;;7.50;;
4424;SDS011;2225;53.568;13.266;2024-03-23T06:55:41;21.37;;;4.90;;
4424;SDS011;2225;53.568;13.266;2024-03-23T06:58:07;35.10;;;7.00;;
4424;SDS011;2225;53.568;13.266;2024-03-23T07:00:33;27.17;;;6.70;;
4424;SDS011;2225;53.568;13.266;2024-03-23T07:03:00;36.27;;;6.20;;
4424;SDS011;2225;53.568;13.266;2024-03-23T07:05:27;36.87;;;7.93;;
4424;SDS011;2225;53.568;13.266;2024-03-23T07:07:53;36.10;;;6.57;;
4424;SDS011;2225;53.568;13.266;2024-03-23T07:10:19;29.73;;;6.70;;
4424;SDS011;2225;53.568;13.266;2024-03-23T07:12:45;31.50;;;7.20;;
4424;SDS011;2225;53.568;13.266;2024-03-23T07:15:10;36.13;;;8.10;;
4424;SDS011;2225;53.568;13.266;2024-03-23T07:17:36;30.47;;;7.13;;
4424;SDS011;2225;53.568;13.266;2024-03-23T07:20:02;33.63;;;6.83;;
4424;SDS011;2225;53.568;13.266;2024-03-23T07:22:32;47.33;;;6.20;;
4424;SDS011;2225;53.568;13.266;2024-03-23T07:25:01;28.30;;;7.00;;
4424;SDS011;2225;53.568;13.266;2024-03-23T07:27:28;35.03;;;6.13;;
4424;SDS011;2225;53.568;13.266;2024-03-23T07:29:54;24.80;;;5.70;;
4424;SDS011;2225;53.568;13.266;2024-03-23T07:32:20;32.83;;;5.80;;
4424;SDS011;2225;53.568;13.266;2024-03-23T07:34:46;32.20;;;7.90;;
4424;SDS011;2225;53.568;13.266;2024-03-23T07:37:12;26.53;;;6.83;;
4424;SDS011;2225;53.568;13.266;2024-03-23T07:39:39;31.83;;;6.83;;
4424;SDS011;2225;53.568;13.266;2024-03-23T07:42:05;30.47;;;6.60;;
4424;SDS011;2225;53.568;13.266;2024-03-23T07:44:31;42.07;;;7.30;;
4424;SDS011;2225;53.568;13.266;2024-03-23T07:46:58;32.03;;;7.23;;
4424;SDS011;2225;53.568;13.266;2024-03-23T07:49:26;22.20;;;6.40;;
4424;SDS011;2225;53.568;13.266;2024-03-23T07:51:52;26.47;;;6.00;;
4424;SDS011;2225;53.568;13.266;2024-03-23T07:54:18;28.17;;;7.10;;
4424;SDS011;2225;53.568;13.266;2024-03-23T07:56:44;24.33;;;6.23;;
4424;SDS011;2225;53.568;13.266;2024-03-23T07:59:10;28.77;;;6.50;;
4424;SDS011;2225;53.568;13.266;2024-03-23T08:01:36;40.47;;;7.40;;
4424;SDS011;2225;53.568;13.266;2024-03-23T08:04:02;36.27;;;6.80;;
4424;SDS011;2225;53.568;13.266;2024-03-23T08:06:28;39.00;;;8.50;;
4424;SDS011;2225;53.568;13.266;2024-03-23T08:08:55;29.07;;;6.67;;
4424;SDS011;2225;53.568;13.266;2024-03-23T08:11:26;24.93;;;5.90;;
4424;SDS011;2225;53.568;13.266;2024-03-23T08:13:56;22.80;;;5.60;;
4424;SDS011;2225;53.568;13.266;2024-03-23T08:16:22;26.97;;;5.80;;
4424;SDS011;2225;53.568;13.266;2024-03-23T08:18:52;36.30;;;8.80;;
4424;SDS011;2225;53.568;13.266;2024-03-23T08:21:18;33.03;;;6.23;;
4424;SDS011;2225;53.568;13.266;2024-03-23T08:23:44;24.73;;;7.70;;
4424;SDS011;2225;53.568;13.266;2024-03-23T08:26:11;27.03;;;6.67;;
4424;SDS011;2225;53.568;13.266;2024-03-23T08:28:40;29.97;;;6.90;;
4424;SDS011;2225;53.568;13.266;2024-03-23T08:31:07;32.97;;;7.80;;
4424;SDS011;2225;53.568;13.266;2024-03-23T08:33:35;33.20;;;7.20;;
4424;SDS011;2225;53.568;13.266;2024-03-23T08:36:02;43.43;;;6.87;;
4424;SDS011;2225;53.568;13.266;2024-03-23T08:38:30;40.47;;;7.37;;
4424;SDS011;2225;53.568;13.266;2024-03-23T08:40:57;25.97;;;7.57;;
4424;SDS011;2225;53.568;13.266;2024-03-23T08:43:24;38.40;;;6.63;;
4424;SDS011;2225;53.568;13.266;2024-03-23T08:45:51;39.67;;;6.43;;
4424;SDS011;2225;53.568;13.266;2024-03-23T08:48:18;31.53;;;6.97;;
4424;SDS011;2225;53.568;13.266;2024-03-23T08:50:46;22.20;;;6.00;;
4424;SDS011;2225;53.568;13.266;2024-03-23T08:53:12;31.40;;;7.47;;
4424;SDS011;2225;53.568;13.266;2024-03-23T08:55:39;40.50;;;6.30;;
4424;SDS011;2225;53.568;13.266;2024-03-23T08:58:05;31.40;;;7.03;;
4424;SDS011;2225;53.568;13.266;2024-03-23T09:00:33;30.37;;;5.70;;
4424;SDS011;2225;53.568;13.266;2024-03-23T09:03:00;23.80;;;5.10;;
4424;SDS011;2225;53.568;13.266;2024-03-23T09:05:27;30.03;;;7.90;;
4424;SDS011;2225;53.568;13.266;2024-03-23T09:07:54;24.07;;;5.83;;
4424;SDS011;2225;53.568;13.266;2024-03-23T09:10:19;34.37;;;7.40;;
4424;SDS011;2225;53.568;13.266;2024-03-23T09:12:47;34.20;;;6.90;;
4424;SDS011;2225;53.568;13.266;2024-03-23T09:15:13;34.30;;;7.07;;
4424;SDS011;2225;53.568;13.266;2024-03-23T09:17:39;31.83;;;7.33;;
4424;SDS011;2225;53.568;13.266;2024-03-23T09:20:05;26.00;;;6.33;;
4424;SDS011;2225;53.568;13.266;2024-03-23T09:22:32;36.03;;;6.03;;
4424;SDS011;2225;53.568;13.266;2024-03-23T09:24:58;29.50;;;5.63;;
4424;SDS011;2225;53.568;13.266;2024-03-23T09:27:23;34.97;;;5.60;;
4424;SDS011;2225;53.568;13.266;2024-03-23T09:29:49;23.77;;;5.90;;
4424;SDS011;2225;53.568;13.266;2024-03-23T09:32:15;23.87;;;4.90;;
4424;SDS011;2225;53.568;13.266;2024-03-23T09:34:41;39.90;;;6.27;;
4424;SDS011;2225;53.568;13.266;2024-03-23T09:37:07;29.33;;;6.50;;
4424;SDS011;2225;53.568;13.266;2024-03-23T09:39:33;25.17;;;5.90;;
4424;SDS011;2225;53.568;13.266;2024-03-23T09:41:59;37.00;;;8.00;;
4424;SDS011;2225;53.568;13.266;2024-03-23T09:44:25;46.17;;;6.13;;
4424;SDS011;2225;53.568;13.266;2024-03-23T09:46:54;24.10;;;5.33;;
4424;SDS011;2225;53.568;13.266;2024-03-23T09:49:21;29.57;;;6.33;;
4424;SDS011;2225;53.568;13.266;2024-03-23T09:51:47;25.10;;;6.57;;
4424;SDS011;2225;53.568;13.266;2024-03-23T09:54:13;29.07;;;5.87;;
4424;SDS011;2225;53.568;13.266;2024-03-23T09:56:39;28.53;;;5.50;;
4424;SDS011;2225;53.568;13.266;2024-03-23T09:59:05;18.87;;;4.87;;
4424;SDS011;2225;53.568;13.266;2024-03-23T10:01:31;23.67;;;4.57;;
4424;SDS011;2225;53.568;13.266;2024-03-23T10:03:58;27.20;;;5.83;;
4424;SDS011;2225;53.568;13.266;2024-03-23T10:06:24;26.97;;;5.67;;
4424;SDS011;2225;53.568;13.266;2024-03-23T10:08:51;26.03;;;5.90;;
4424;SDS011;2225;53.568;13.266;2024-03-23T10:11:18;28.40;;;6.30;;
4424;SDS011;2225;53.568;13.266;2024-03-23T10:13:45;24.13;;;5.90;;
4424;SDS011;2225;53.568;13.266;2024-03-23T10:16:21;25.47;;;5.50;;
4424;SDS011;2225;53.568;13.266;2024-03-23T10:18:48;33.90;;;5.73;;
4424;SDS011;2225;53.568;13.266;2024-03-23T10:21:15;32.33;;;5.60;;
4424;SDS011;2225;53.568;13.266;2024-03-23T10:23:42;34.40;;;6.67;;
4424;SDS011;2225;53.568;13.266;2024-03-23T10:26:12;21.13;;;5.40;;
4424;SDS011;2225;53.568;13.266;2024-03-23T10:28:54;29.17;;;5.53;;
4424;SDS011;2225;53.568;13.266;2024-03-23T10:31:27;25.63;;;5.53;;
4424;SDS011;2225;53.568;13.266;2024-03-23T10:33:54;32.70;;;5.70;;
4424;SDS011;2225;53.568;13.266;2024-03-23T10:36:20;26.93;;;5.50;;
4424;SDS011;2225;53.568;13.266;2024-03-23T10:38:47;20.40;;;5.30;;
4424;SDS011;2225;53.568;13.266;2024-03-23T10:41:16;31.17;;;6.83;;
4424;SDS011;2225;53.568;13.266;2024-03-23T10:43:45;30.27;;;5.40;;
4424;SDS011;2225;53.568;13.266;2024-03-23T10:46:13;22.87;;;5.20;;
4424;SDS011;2225;53.568;13.266;2024-03-23T10:48:40;29.17;;;4.93;;
4424;SDS011;2225;53.568;13.266;2024-03-23T10:51:07;24.00;;;5.43;;
4424;SDS011;2225;53.568;13.266;2024-03-23T10:53:34;23.93;;;5.30;;
4424;SDS011;2225;53.568;13.266;2024-03-23T10:56:02;19.60;;;4.10;;
4424;SDS011;2225;53.568;13.266;2024-03-23T10:58:30;22.97;;;5.77;;
4424;SDS011;2225;53.568;13.266;2024-03-23T11:01:04;26.10;;;5.00;;
4424;SDS011;2225;53.568;13.266;2024-03-23T11:06:06;27.53;;;5.47;;
4424;SDS011;2225;53.568;13.266;2024-03-23T11:08:37;20.30;;;5.00;;
4424;SDS011;2225;53.568;13.266;2024-03-23T11:13:50;25.50;;;4.97;;
4424;SDS011;2225;53.568;13.266;2024-03-23T11:16:27;24.00;;;5.30;;
4424;SDS011;2225;53.568;13.266;2024-03-23T11:19:33;21.80;;;5.00;;
4424;SDS011;2225;53.568;13.266;2024-03-23T11:21:59;32.03;;;5.30;;
4424;SDS011;2225;53.568;13.266;2024-03-23T11:24:26;31.50;;;5.87;;
4424;SDS011;2225;53.568;13.266;2024-03-23T11:26:52;19.17;;;5.33;;
4424;SDS011;2225;53.568;13.266;2024-03-23T11:29:18;22.20;;;5.40;;
4424;SDS011;2225;53.568;13.266;2024-03-23T11:31:51;18.40;;;4.23;;
4424;SDS011;2225;53.568;13.266;2024-03-23T11:34:21;22.97;;;3.77;;
4424;SDS011;2225;53.568;13.266;2024-03-23T11:36:47;22.50;;;4.80;;
4424;SDS011;2225;53.568;13.266;2024-03-23T11:39:16;19.50;;;3.70;;
4424;SDS011;2225;53.568;13.266;2024-03-23T11:41:45;18.53;;;4.00;;
4424;SDS011;2225;53.568;13.266;2024-03-23T11:44:19;15.23;;;3.50;;
4424;SDS011;2225;53.568;13.266;2024-03-23T11:46:50;18.87;;;3.67;;
4424;SDS011;2225;53.568;13.266;2024-03-23T11:49:23;14.57;;;3.40;;
4424;SDS011;2225;53.568;13.266;2024-03-23T11:51:51;16.50;;;2.97;;
4424;SDS011;2225;53.568;13.266;2024-03-23T11:54:21;19.60;;;3.37;;
4424;SDS011;2225;53.568;13.266;2024-03-23T11:56:59;15.33;;;3.30;;
4424;SDS011;2225;53.568;13.266;2024-03-23T12:02:06;22.70;;;3.17;;
4424;SDS011;2225;53.568;13.266;2024-03-23T12:04:40;16.30;;;3.30;;
4424;SDS011;2225;53.568;13.266;2024-03-23T12:09:46;15.27;;;3.53;;
4424;SDS011;2225;53.568;13.266;2024-03-23T12:12:28;18.17;;;4.13;;
4424;SDS011;2225;53.568;13.266;2024-03-23T12:15:07;21.97;;;3.80;;
4424;SDS011;2225;53.568;13.266;2024-03-23T12:17:34;18.27;;;3.40;;
4424;SDS011;2225;53.568;13.266;2024-03-23T12:20:01;12.13;;;3.10;;
4424;SDS011;2225;53.568;13.266;2024-03-23T12:22:27;13.90;;;3.80;;
4424;SDS011;2225;53.568;13.266;2024-03-23T12:24:55;16.60;;;2.97;;
4424;SDS011;2225;53.568;13.266;2024-03-23T12:27:21;12.30;;;3.67;;
4424;SDS011;2225;53.568;13.266;2024-03-23T12:29:48;15.80;;;3.60;;
4424;SDS011;2225;53.568;13.266;2024-03-23T12:32:14;12.57;;;3.20;;
4424;SDS011;2225;53.568;13.266;2024-03-23T12:34:40;17.73;;;3.20;;
4424;SDS011;2225;53.568;13.266;2024-03-23T12:37:07;15.67;;;2.80;;
4424;SDS011;2225;53.568;13.266;2024-03-23T12:39:33;22.00;;;3.03;;
4424;SDS011;2225;53.568;13.266;2024-03-23T12:42:01;19.20;;;3.17;;
4424;SDS011;2225;53.568;13.266;2024-03-23T12:44:28;14.97;;;3.50;;
4424;SDS011;2225;53.568;13.266;2024-03-23T12:46:54;11.63;;;2.30;;
4424;SDS011;2225;53.568;13.266;2024-03-23T12:49:20;13.03;;;3.40;;
4424;SDS011;2225;53.568;13.266;2024-03-23T12:51:48;15.30;;;2.80;;
4424;SDS011;2225;53.568;13.266;2024-03-23T12:54:24;13.47;;;2.83;;
4424;SDS011;2225;53.568;13.266;2024-03-23T12:56:50;11.27;;;2.57;;
4424;SDS011;2225;53.568;13.266;2024-03-23T12:59:16;15.03;;;3.40;;
4424;SDS011;2225;53.568;13.266;2024-03-23T13:01:43;14.20;;;3.00;;
4424;SDS011;2225;53.568;13.266;2024-03-23T13:04:10;16.23;;;3.10;;
4424;SDS011;2225;53.568;13.266;2024-03-23T13:06:36;21.23;;;3.33;;
4424;SDS011;2225;53.568;13.266;2024-03-23T13:09:02;14.50;;;2.57;;
4424;SDS011;2225;53.568;13.266;2024-03-23T13:11:29;18.60;;;3.37;;
4424;SDS011;2225;53.568;13.266;2024-03-23T13:13:56;11.90;;;2.83;;
4424;SDS011;2225;53.568;13.266;2024-03-23T13:16:22;18.07;;;3.80;;
4424;SDS011;2225;53.568;13.266;2024-03-23T13:18:49;19.27;;;3.20;;
4424;SDS011;2225;53.568;13.266;2024-03-23T13:21:15;15.60;;;3.70;;
4424;SDS011;2225;53.568;13.266;2024-03-23T13:23:41;13.07;;;3.17;;
4424;SDS011;2225;53.568;13.266;2024-03-23T13:26:09;12.73;;;2.30;;
4424;SDS011;2225;53.568;13.266;2024-03-23T13:28:34;15.07;;;3.00;;
4424;SDS011;2225;53.568;13.266;2024-03-23T13:31:01;14.67;;;3.00;;
4424;SDS011;2225;53.568;13.266;2024-03-23T13:33:30;10.03;;;2.37;;
4424;SDS011;2225;53.568;13.266;2024-03-23T13:35:59;13.97;;;2.40;;
4424;SDS011;2225;53.568;13.266;2024-03-23T13:38:25;11.43;;;3.37;;
4424;SDS011;2225;53.568;13.266;2024-03-23T13:40:55;14.70;;;3.53;;
4424;SDS011;2225;53.568;13.266;2024-03-23T13:43:23;11.73;;;3.83;;
4424;SDS011;2225;53.568;13.266;2024-03-23T13:45:57;12.30;;;3.07;;
4424;SDS011;2225;53.568;13.266;2024-03-23T13:48:25;11.00;;;2.50;;
4424;SDS011;2225;53.568;13.266;2024-03-23T13:51:00;12.00;;;2.90;;
4424;SDS011;2225;53.568;13.266;2024-03-23T13:53:28;11.07;;;3.20;;
4424;SDS011;2225;53.568;13.266;2024-03-23T13:55:54;12.77;;;2.90;;
4424;SDS011;2225;53.568;13.266;2024-03-23T13:58:21;13.40;;;2.93;;
4424;SDS011;2225;53.568;13.266;2024-03-23T14:00:47;10.23;;;3.27;;
4424;SDS011;2225;53.568;13.266;2024-03-23T14:03:13;14.57;;;2.73;;
4424;SDS011;2225;53.568;13.266;2024-03-23T14:05:40;11.93;;;2.70;;
4424;SDS011;2225;53.568;13.266;2024-03-23T14:08:06;9.37;;;2.47;;
4424;SDS011;2225;53.568;13.266;2024-03-23T14:10:33;7.87;;;2.40;;
4424;SDS011;2225;53.568;13.266;2024-03-23T14:12:59;12.70;;;2.57;;
4424;SDS011;2225;53.568;13.266;2024-03-23T14:15:26;10.73;;;3.10;;
4424;SDS011;2225;53.568;13.266;2024-03-23T14:17:52;9.13;;;3.20;;
4424;SDS011;2225;53.568;13.266;2024-03-23T14:20:20;14.70;;;2.80;;
4424;SDS011;2225;53.568;13.266;2024-03-23T14:22:48;9.07;;;2.67;;
4424;SDS011;2225;53.568;13.266;2024-03-23T14:25:14;11.47;;;2.60;;
4424;SDS011;2225;53.568;13.266;2024-03-23T14:27:40;8.00;;;2.40;;
4424;SDS011;2225;53.568;13.266;2024-03-23T14:30:08;8.40;;;2.57;;
4424;SDS011;2225;53.568;13.266;2024-03-23T14:32:35;8.87;;;2.27;;
4424;SDS011;2225;53.568;13.266;2024-03-23T14:35:03;8.80;;;2.40;;
4424;SDS011;2225;53.568;13.266;2024-03-23T14:37:29;15.90;;;3.17;;
4424;SDS011;2225;53.568;13.266;2024-03-23T14:39:56;10.10;;;2.53;;
4424;SDS011;2225;53.568;13.266;2024-03-23T14:42:23;11.10;;;3.23;;
4424;SDS011;2225;53.568;13.266;2024-03-23T14:44:50;10.17;;;2.80;;
4424;SDS011;2225;53.568;13.266;2024-03-23T14:47:17;11.43;;;2.60;;
4424;SDS011;2225;53.568;13.266;2024-03-23T14:49:44;18.83;;;2.87;;
4424;SDS011;2225;53.568;13.266;2024-03-23T14:52:15;9.23;;;2.30;;
4424;SDS011;2225;53.568;13.266;2024-03-23T14:54:45;9.43;;;2.50;;
4424;SDS011;2225;53.568;13.266;2024-03-23T14:57:11;8.90;;;2.40;;
4424;SDS011;2225;53.568;13.266;2024-03-23T14:59:38;10.00;;;2.00;;
4424;SDS011;2225;53.568;13.266;2024-03-23T15:02:04;12.00;;;2.63;;
4424;SDS011;2225;53.568;13.266;2024-03-23T15:04:30;9.37;;;2.33;;
4424;SDS011;2225;53.568;13.266;2024-03-23T15:06:56;10.90;;;3.30;;
4424;SDS011;2225;53.568;13.266;2024-03-23T15:09:22;12.70;;;2.73;;
4424;SDS011;2225;53.568;13.266;2024-03-23T15:11:48;14.50;;;3.40;;
4424;SDS011;2225;53.568;13.266;2024-03-23T15:14:14;10.70;;;2.77;;
4424;SDS011;2225;53.568;13.266;2024-03-23T15:16:40;13.13;;;3.30;;
4424;SDS011;2225;53.568;13.266;2024-03-23T15:19:08;17.13;;;3.43;;
4424;SDS011;2225;53.568;13.266;2024-03-23T15:21:34;9.90;;;2.80;;
4424;SDS011;2225;53.568;13.266;2024-03-23T15:24:00;14.50;;;4.87;;
4424;SDS011;2225;53.568;13.266;2024-03-23T15:26:26;7.40;;;2.27;;
4424;SDS011;2225;53.568;13.266;2024-03-23T15:28:52;12.80;;;2.03;;
4424;SDS011;2225;53.568;13.266;2024-03-23T15:31:24;7.40;;;2.03;;
4424;SDS011;2225;53.568;13.266;2024-03-23T15:33:50;8.13;;;2.10;;
4424;SDS011;2225;53.568;13.266;2024-03-23T15:36:17;8.73;;;2.20;;
4424;SDS011;2225;53.568;13.266;2024-03-23T15:38:43;8.97;;;2.27;;
4424;SDS011;2225;53.568;13.266;2024-03-23T15:41:10;13.80;;;1.90;;
4424;SDS011;2225;53.568;13.266;2024-03-23T15:43:36;7.63;;;2.60;;
4424;SDS011;2225;53.568;13.266;2024-03-23T15:46:04;8.77;;;2.10;;
4424;SDS011;2225;53.568;13.266;2024-03-23T15:48:31;8.90;;;2.67;;
4424;SDS011;2225;53.568;13.266;2024-03-23T15:50:58;7.83;;;3.00;;